Bayway, New Jersey
Current Conditions -  °F | °C
As of 12:55 PM on Wednesday 28 Jan 2015 (Local Time) from KLDJ Reporting Station
Clear Clear  
Wind Chill: 24°   Ceiling: Unl
Heat Index: 34°   Visibility: 10mi
Dew Point: 12°   Wind: 14mph
Humidity: 41%   Direction: 340°NNW
Pressure: 30.09"   Gusts: 22mph
Location:  40.6531°N, 74.2169°W
Report Text: KLDJ 281755Z AUTO 34012G19KT 10SM CLR 01/M11 A3009 RMK AO2 T00101109 10010 21056
Loading
Personal Weather Stations






























Interactive Weather Map New forecast layout! Learn more

10-Day Weather Forecast

Advertisements
Track Severe Weather on mobile